createdAt,value
2022-10-21T00:01:30.304Z,6.53
2022-10-21T00:03:58.915Z,6.77
2022-10-21T00:06:27.446Z,5.88
2022-10-21T00:08:57.483Z,6.30
2022-10-21T00:11:26.107Z,6.43
2022-10-21T00:13:54.685Z,6.17
2022-10-21T00:16:23.294Z,6.20
2022-10-21T00:18:51.895Z,6.05
2022-10-21T00:21:23.060Z,4.78
2022-10-21T00:23:51.850Z,5.82
2022-10-21T00:26:22.223Z,6.32
2022-10-21T00:28:50.988Z,6.80
2022-10-21T00:31:19.616Z,7.18
2022-10-21T00:33:48.191Z,6.20
2022-10-21T00:36:17.172Z,6.97
2022-10-21T00:38:48.581Z,7.23
2022-10-21T00:41:21.230Z,6.00
2022-10-21T00:44:02.762Z,6.00
2022-10-21T00:46:45.691Z,5.80
2022-10-21T00:49:22.902Z,5.60
2022-10-21T00:51:57.499Z,6.47
2022-10-21T00:54:28.001Z,6.95
2022-10-21T00:56:59.316Z,7.57
2022-10-21T00:59:34.886Z,6.53
2022-10-21T01:02:04.084Z,5.87
2022-10-21T01:04:32.633Z,6.07
2022-10-21T01:07:03.791Z,6.03
2022-10-21T01:09:32.679Z,6.00
2022-10-21T01:12:06.473Z,7.23
2022-10-21T01:14:55.152Z,6.95
2022-10-21T01:17:47.671Z,6.50
2022-10-21T01:21:07.444Z,7.13
2022-10-21T01:24:23.464Z,6.97
2022-10-21T01:27:32.094Z,6.40
2022-10-21T01:30:43.996Z,7.30
2022-10-21T01:33:39.165Z,7.77
2022-10-21T01:36:32.083Z,6.87
2022-10-21T01:39:20.014Z,6.43
2022-10-21T01:42:00.877Z,6.33
2022-10-21T01:44:38.441Z,7.57
2022-10-21T01:47:17.593Z,6.65
2022-10-21T01:49:54.114Z,6.65
2022-10-21T01:52:23.557Z,6.28
2022-10-21T01:54:59.565Z,7.23
2022-10-21T01:57:36.782Z,6.97
2022-10-21T02:00:07.544Z,7.10
2022-10-21T02:02:47.618Z,6.00
2022-10-21T02:05:22.048Z,7.00
2022-10-21T02:07:51.595Z,7.10
2022-10-21T02:10:21.525Z,7.63
2022-10-21T02:12:54.709Z,7.43
2022-10-21T02:15:26.862Z,7.83
2022-10-21T02:18:04.204Z,7.80
2022-10-21T02:20:39.093Z,7.50
2022-10-21T02:23:13.529Z,7.05
2022-10-21T02:25:49.147Z,6.50
2022-10-21T02:28:19.193Z,6.37
2022-10-21T02:31:04.298Z,7.30
2022-10-21T02:33:52.023Z,7.30
2022-10-21T02:36:37.875Z,6.80
2022-10-21T02:39:16.543Z,7.70
2022-10-21T02:41:49.438Z,6.60
2022-10-21T02:44:18.802Z,7.57
2022-10-21T02:46:49.697Z,6.57
2022-10-21T02:49:19.923Z,7.35
2022-10-21T02:51:48.857Z,7.07
2022-10-21T02:54:17.585Z,6.73
2022-10-21T02:56:46.368Z,7.57
2022-10-21T02:59:15.141Z,7.03
2022-10-21T03:01:43.989Z,6.93
2022-10-21T03:04:12.763Z,7.93
2022-10-21T03:06:42.930Z,6.80
2022-10-21T03:09:11.887Z,7.53
2022-10-21T03:11:40.633Z,6.55
2022-10-21T03:14:09.387Z,7.35
2022-10-21T03:16:38.186Z,10.15
2022-10-21T03:19:06.938Z,8.20
2022-10-21T03:21:35.728Z,7.27
2022-10-21T03:24:11.017Z,7.38
2022-10-21T03:26:48.526Z,7.83
2022-10-21T03:29:17.445Z,6.90
2022-10-21T03:31:46.257Z,7.87
2022-10-21T03:34:15.007Z,8.20
2022-10-21T03:36:43.722Z,8.33
2022-10-21T03:39:14.326Z,6.33
2022-10-21T03:41:43.128Z,8.67
2022-10-21T03:44:12.012Z,8.43
2022-10-21T03:46:40.810Z,7.80
2022-10-21T03:49:18.276Z,8.10
2022-10-21T03:51:50.199Z,7.80
2022-10-21T03:54:20.737Z,6.97
2022-10-21T03:56:49.710Z,7.60
2022-10-21T03:59:18.925Z,8.43
2022-10-21T04:01:47.737Z,8.63
2022-10-21T04:04:16.610Z,8.70
2022-10-21T04:06:45.345Z,8.47
2022-10-21T04:09:14.167Z,7.53
2022-10-21T04:11:44.488Z,8.97
2022-10-21T04:14:15.397Z,7.20
2022-10-21T04:16:46.134Z,7.87
2022-10-21T04:19:20.558Z,7.73
2022-10-21T04:21:49.441Z,8.40
2022-10-21T04:24:18.434Z,8.27
2022-10-21T04:26:48.609Z,8.37
2022-10-21T04:29:17.323Z,9.77
2022-10-21T04:31:46.394Z,8.13
2022-10-21T04:34:15.849Z,8.50
2022-10-21T04:36:44.833Z,8.27
2022-10-21T04:39:13.743Z,9.40
2022-10-21T04:41:42.513Z,9.50
2022-10-21T04:44:13.044Z,7.18
2022-10-21T04:46:41.853Z,8.40
2022-10-21T04:49:10.572Z,8.23
2022-10-21T04:51:39.436Z,9.27
2022-10-21T04:54:08.115Z,9.57
2022-10-21T04:56:36.962Z,9.77
2022-10-21T04:59:05.693Z,9.53
2022-10-21T05:01:35.973Z,9.65
2022-10-21T05:04:04.983Z,10.53
2022-10-21T05:06:33.930Z,9.30
2022-10-21T05:09:02.736Z,7.93
2022-10-21T05:11:31.643Z,8.53
2022-10-21T05:14:00.440Z,9.53
2022-10-21T05:16:29.329Z,9.73
2022-10-21T05:19:00.646Z,9.93
2022-10-21T05:21:29.501Z,8.60
2022-10-21T05:23:58.444Z,9.00
2022-10-21T05:26:29.012Z,8.67
2022-10-21T05:28:58.042Z,9.17
2022-10-21T05:31:27.620Z,10.63
2022-10-21T05:33:58.642Z,9.87
2022-10-21T05:36:27.712Z,9.27
2022-10-21T05:38:56.458Z,8.50
2022-10-21T05:41:25.294Z,9.50
2022-10-21T05:43:53.985Z,10.87
2022-10-21T05:46:23.503Z,10.50
2022-10-21T05:48:52.257Z,8.13
2022-10-21T05:51:26.510Z,9.23
2022-10-21T05:53:55.509Z,8.87
2022-10-21T05:56:24.406Z,9.00
2022-10-21T05:58:53.304Z,8.23
2022-10-21T06:01:22.155Z,9.17
2022-10-21T06:03:50.985Z,9.03
2022-10-21T06:06:21.252Z,10.13
2022-10-21T06:08:50.103Z,10.10
2022-10-21T06:11:21.826Z,9.53
2022-10-21T06:13:50.761Z,9.50
2022-10-21T06:16:19.773Z,8.73
2022-10-21T06:18:48.597Z,8.77
2022-10-21T06:21:17.452Z,9.37
2022-10-21T06:23:47.854Z,10.10
2022-10-21T06:26:17.990Z,9.40
2022-10-21T06:28:46.795Z,9.40
2022-10-21T06:31:21.803Z,8.87
2022-10-21T06:33:50.935Z,8.87
2022-10-21T06:36:19.701Z,10.17
2022-10-21T06:38:49.978Z,8.93
2022-10-21T06:41:19.067Z,8.23
2022-10-21T06:43:47.873Z,10.47
2022-10-21T06:46:17.827Z,10.60
2022-10-21T06:48:46.567Z,10.27
2022-10-21T06:51:20.497Z,9.60
2022-10-21T06:53:55.978Z,9.43
2022-10-21T06:56:26.586Z,9.17
2022-10-21T06:58:58.791Z,9.90
2022-10-21T07:01:48.158Z,9.40
2022-10-21T07:04:21.973Z,9.87
2022-10-21T07:06:50.825Z,12.40
2022-10-21T07:09:21.166Z,9.07
2022-10-21T07:11:50.138Z,11.10
2022-10-21T07:14:19.196Z,10.23
2022-10-21T07:16:48.410Z,11.13
2022-10-21T07:19:17.276Z,9.37
2022-10-21T07:21:46.312Z,9.63
2022-10-21T07:24:18.718Z,9.40
2022-10-21T07:26:50.214Z,9.40
2022-10-21T07:29:20.094Z,10.17
2022-10-21T07:31:49.039Z,9.57
2022-10-21T07:34:19.015Z,11.00
2022-10-21T07:36:52.702Z,12.13
2022-10-21T07:39:24.396Z,9.97
2022-10-21T07:41:56.737Z,10.33
2022-10-21T07:44:27.450Z,10.00
2022-10-21T07:46:57.107Z,8.43
2022-10-21T07:49:26.550Z,10.53
2022-10-21T07:51:55.567Z,9.03
2022-10-21T07:54:24.589Z,9.53
2022-10-21T07:56:54.920Z,9.37
2022-10-21T07:59:24.592Z,8.40
2022-10-21T08:01:54.143Z,8.43
2022-10-21T08:04:29.720Z,10.07
2022-10-21T08:06:59.183Z,10.27
2022-10-21T08:09:28.484Z,10.10
2022-10-21T08:11:59.064Z,10.57
2022-10-21T08:14:28.044Z,10.47
2022-10-21T08:16:57.412Z,9.70
2022-10-21T08:19:29.784Z,10.07
2022-10-21T08:22:00.955Z,11.23
2022-10-21T08:24:30.026Z,9.30
2022-10-21T08:27:00.471Z,7.87
2022-10-21T08:29:29.636Z,9.97
2022-10-21T08:31:58.756Z,8.80
2022-10-21T08:34:27.740Z,9.30
2022-10-21T08:36:56.828Z,9.60
2022-10-21T08:39:26.143Z,9.10
2022-10-21T08:42:09.509Z,9.40
2022-10-21T08:44:51.494Z,9.77
2022-10-21T08:47:26.553Z,10.80
2022-10-21T08:50:01.988Z,10.50
2022-10-21T08:52:41.249Z,10.40
2022-10-21T08:55:15.752Z,9.57
2022-10-21T08:57:46.952Z,9.40
2022-10-21T09:00:21.641Z,10.03
2022-10-21T09:03:08.838Z,10.73
2022-10-21T09:05:53.559Z,11.10
2022-10-21T09:08:28.225Z,10.40
2022-10-21T09:11:02.895Z,8.50
2022-10-21T09:13:56.788Z,8.90
2022-10-21T09:16:37.239Z,9.33
2022-10-21T09:19:15.206Z,9.80
2022-10-21T09:22:10.475Z,9.50
2022-10-21T09:24:53.468Z,9.27
2022-10-21T09:27:31.995Z,10.07
2022-10-21T09:30:15.508Z,9.87
2022-10-21T09:32:49.887Z,10.70
2022-10-21T09:35:26.049Z,9.60
2022-10-21T09:37:59.772Z,8.90
2022-10-21T09:40:30.452Z,9.67
2022-10-21T09:43:01.530Z,8.87
2022-10-21T09:45:35.520Z,9.43
2022-10-21T09:48:17.777Z,10.30
2022-10-21T09:50:48.504Z,9.27
2022-10-21T09:53:26.351Z,10.33
2022-10-21T09:56:03.848Z,10.33
2022-10-21T09:58:49.619Z,9.50
2022-10-21T10:01:22.217Z,10.03
2022-10-21T10:03:53.782Z,10.90
2022-10-21T10:06:41.571Z,10.47
2022-10-21T10:09:17.038Z,9.90
2022-10-21T10:11:54.999Z,11.17
2022-10-21T10:14:33.621Z,10.30
2022-10-21T10:17:25.560Z,10.73
2022-10-21T10:20:20.082Z,10.50
2022-10-21T10:23:09.778Z,9.70
2022-10-21T10:25:40.979Z,11.07
2022-10-21T10:28:26.059Z,10.50
2022-10-21T10:30:57.991Z,10.53
2022-10-21T10:33:30.762Z,9.70
2022-10-21T10:36:03.361Z,10.03
2022-10-21T10:38:36.345Z,10.23
2022-10-21T10:41:07.764Z,11.70
2022-10-21T10:43:42.831Z,10.53
2022-10-21T10:46:23.307Z,10.37
2022-10-21T10:48:55.542Z,11.87
2022-10-21T10:51:29.952Z,10.43
2022-10-21T10:54:16.400Z,9.73
2022-10-21T10:56:51.725Z,9.57
2022-10-21T10:59:31.862Z,11.77
2022-10-21T11:02:14.487Z,10.97
2022-10-21T11:04:55.556Z,11.53
2022-10-21T11:07:30.409Z,10.73
2022-10-21T11:10:04.295Z,10.73
2022-10-21T11:12:34.257Z,10.43
2022-10-21T11:15:03.425Z,10.67
2022-10-21T11:17:39.260Z,10.80
2022-10-21T11:20:19.864Z,9.60
2022-10-21T11:22:59.830Z,10.07
2022-10-21T11:25:36.884Z,10.20
2022-10-21T11:28:17.130Z,10.43
2022-10-21T11:31:05.747Z,9.63
2022-10-21T11:33:45.477Z,10.07
2022-10-21T11:36:25.412Z,9.73
2022-10-21T11:39:21.861Z,10.63
2022-10-21T11:41:57.413Z,10.50
2022-10-21T11:44:34.317Z,11.80
2022-10-21T11:47:11.459Z,10.00
2022-10-21T11:49:52.156Z,10.63
2022-10-21T11:52:39.021Z,11.43
2022-10-21T11:55:40.358Z,10.50
2022-10-21T11:58:25.031Z,9.17
2022-10-21T12:01:02.615Z,10.40
2022-10-21T12:03:53.649Z,13.13
2022-10-21T12:06:34.354Z,12.10
2022-10-21T12:09:08.249Z,11.10
2022-10-21T12:11:45.135Z,10.87
2022-10-21T12:14:31.120Z,10.90
2022-10-21T12:17:06.667Z,13.93
2022-10-21T12:19:36.756Z,12.43
2022-10-21T12:22:06.129Z,11.27
2022-10-21T12:24:48.907Z,10.07
2022-10-21T12:27:27.067Z,10.63
2022-10-21T12:30:13.029Z,9.50
2022-10-21T12:32:49.527Z,9.83
2022-10-21T12:35:26.377Z,11.00
2022-10-21T12:38:21.392Z,10.23
2022-10-21T12:40:52.757Z,10.47
2022-10-21T12:43:28.909Z,10.90
2022-10-21T12:46:07.286Z,9.20
2022-10-21T12:48:41.035Z,10.90
2022-10-21T12:51:20.008Z,10.23
2022-10-21T12:56:34.772Z,10.70
2022-10-21T12:59:06.336Z,9.80
2022-10-21T13:01:39.975Z,10.83
2022-10-21T13:04:50.723Z,9.67
2022-10-21T13:08:04.283Z,10.63
2022-10-21T13:10:33.321Z,9.10
2022-10-21T13:13:29.437Z,8.70
2022-10-21T13:15:58.821Z,10.00
2022-10-21T13:18:55.424Z,9.57
2022-10-21T13:21:42.393Z,8.93
2022-10-21T13:24:26.255Z,9.07
2022-10-21T13:26:57.518Z,8.87
2022-10-21T13:29:48.484Z,10.97
2022-10-21T13:32:29.740Z,8.10
2022-10-21T13:35:03.832Z,8.60
2022-10-21T13:37:37.374Z,10.00
2022-10-21T13:40:10.280Z,9.10
2022-10-21T13:42:42.910Z,9.20
2022-10-21T13:45:25.782Z,8.70
2022-10-21T13:48:06.828Z,8.60
2022-10-21T13:50:40.460Z,8.73
2022-10-21T13:53:36.417Z,9.40
2022-10-21T13:56:08.725Z,8.70
2022-10-21T13:58:40.176Z,9.00
2022-10-21T14:01:11.333Z,8.93
2022-10-21T14:03:42.200Z,9.20
2022-10-21T14:06:16.494Z,8.80
2022-10-21T14:08:49.217Z,9.80
2022-10-21T14:11:24.280Z,8.67
2022-10-21T14:13:53.649Z,9.33
2022-10-21T14:16:30.780Z,9.70
2022-10-21T14:19:01.061Z,9.70
2022-10-21T14:21:33.264Z,10.57
2022-10-21T14:24:05.147Z,9.83
2022-10-21T14:26:35.036Z,10.57
2022-10-21T14:29:06.382Z,10.27
2022-10-21T14:31:35.507Z,9.87
2022-10-21T14:34:07.299Z,10.30
2022-10-21T14:36:36.365Z,10.73
2022-10-21T14:39:20.668Z,11.03
2022-10-21T14:41:49.955Z,10.47
2022-10-21T14:44:23.449Z,10.37
2022-10-21T14:46:54.246Z,11.37
2022-10-21T14:49:26.052Z,9.87
2022-10-21T14:52:01.396Z,10.90
2022-10-21T14:54:40.829Z,10.77
2022-10-21T14:57:25.169Z,10.47
2022-10-21T14:59:54.679Z,10.93
2022-10-21T15:02:28.260Z,10.40
2022-10-21T15:04:59.453Z,10.47
2022-10-21T15:07:31.513Z,10.50
2022-10-21T15:10:17.101Z,11.23
2022-10-21T15:12:47.388Z,9.03
2022-10-21T15:15:48.372Z,11.53
2022-10-21T15:18:29.513Z,10.33
2022-10-21T15:21:01.506Z,12.03
2022-10-21T15:23:36.172Z,10.53
2022-10-21T15:26:12.324Z,10.30
2022-10-21T15:28:42.031Z,10.97
2022-10-21T15:31:17.350Z,10.50
2022-10-21T15:33:46.919Z,10.43
2022-10-21T15:36:16.250Z,9.27
2022-10-21T15:38:46.934Z,10.60
2022-10-21T15:41:19.232Z,10.63
2022-10-21T15:43:59.885Z,11.10
2022-10-21T15:46:30.230Z,11.53
2022-10-21T15:49:01.939Z,12.37
2022-10-21T15:51:31.044Z,10.17
2022-10-21T15:54:00.168Z,10.53
2022-10-21T15:56:30.739Z,13.40
2022-10-21T15:58:59.760Z,12.00
2022-10-21T16:01:29.193Z,10.90
2022-10-21T16:03:58.344Z,12.10
2022-10-21T16:06:27.448Z,10.60
2022-10-21T16:08:56.526Z,12.50
2022-10-21T16:11:34.986Z,13.23
2022-10-21T16:14:14.537Z,9.80
2022-10-21T16:16:46.976Z,12.47
2022-10-21T16:19:17.173Z,10.50
2022-10-21T16:21:46.941Z,11.17
2022-10-21T16:24:15.996Z,10.47
2022-10-21T16:26:48.216Z,11.80
2022-10-21T16:29:21.564Z,11.20
2022-10-21T16:31:50.769Z,10.13
2022-10-21T16:34:20.540Z,12.00
2022-10-21T16:36:49.616Z,10.70
2022-10-21T16:39:20.541Z,11.10
2022-10-21T16:41:49.838Z,11.03
2022-10-21T16:44:20.754Z,11.33
2022-10-21T16:46:53.289Z,11.10
2022-10-21T16:49:24.392Z,11.53
2022-10-21T16:51:53.980Z,11.73
2022-10-21T16:54:24.781Z,11.67
2022-10-21T16:56:57.072Z,10.37
2022-10-21T16:59:27.583Z,12.73
2022-10-21T17:01:58.073Z,10.40
2022-10-21T17:04:27.156Z,11.07
2022-10-21T17:06:58.652Z,11.70
2022-10-21T17:09:29.769Z,12.53
2022-10-21T17:11:58.776Z,13.33
2022-10-21T17:14:29.373Z,9.80
2022-10-21T17:16:58.427Z,11.70
2022-10-21T17:19:27.525Z,11.80
2022-10-21T17:21:57.266Z,13.70
2022-10-21T17:24:27.920Z,13.50
2022-10-21T17:26:57.633Z,12.27
2022-10-21T17:29:26.637Z,14.47
2022-10-21T17:31:57.086Z,14.70
2022-10-21T17:34:29.567Z,12.40
2022-10-21T17:36:59.134Z,13.30
2022-10-21T17:39:52.921Z,14.47
2022-10-21T17:42:22.071Z,11.50
2022-10-21T17:44:52.788Z,13.50
2022-10-21T17:47:23.276Z,17.70
2022-10-21T17:49:52.344Z,16.27
2022-10-21T17:52:24.003Z,12.57
2022-10-21T17:54:53.065Z,13.97
2022-10-21T17:57:23.445Z,14.73
2022-10-21T17:59:53.654Z,14.30
2022-10-21T18:02:24.820Z,13.40
2022-10-21T18:04:54.053Z,15.60
2022-10-21T18:07:23.265Z,13.27
2022-10-21T18:09:52.334Z,14.40
2022-10-21T18:12:21.555Z,14.17
2022-10-21T18:14:51.707Z,15.13
2022-10-21T18:17:21.012Z,14.60
2022-10-21T18:19:52.672Z,14.80
2022-10-21T18:22:22.309Z,15.50
2022-10-21T18:24:51.537Z,15.77
2022-10-21T18:27:20.752Z,15.37
2022-10-21T18:29:49.719Z,16.60
2022-10-21T18:32:18.999Z,16.60
2022-10-21T18:34:48.015Z,16.40
2022-10-21T18:37:18.448Z,16.50
2022-10-21T18:39:47.500Z,16.40
2022-10-21T18:42:16.580Z,17.00
2022-10-21T18:44:45.815Z,15.43
2022-10-21T18:47:14.892Z,15.13
2022-10-21T18:49:43.847Z,13.30
2022-10-21T18:52:13.346Z,13.67
2022-10-21T18:54:43.758Z,13.00
2022-10-21T18:57:13.036Z,13.50
2022-10-21T18:59:42.154Z,14.23
2022-10-21T19:02:18.757Z,12.63
2022-10-21T19:04:47.972Z,14.50
2022-10-21T19:07:17.990Z,14.83
2022-10-21T19:09:48.456Z,15.37
2022-10-21T19:12:22.414Z,13.40
2022-10-21T19:14:52.465Z,16.10
2022-10-21T19:17:21.627Z,14.50
2022-10-21T19:19:51.746Z,15.40
2022-10-21T19:22:23.546Z,15.37
2022-10-21T19:24:54.048Z,15.40
2022-10-21T19:27:23.422Z,14.90
2022-10-21T19:29:52.471Z,16.27
2022-10-21T19:32:21.525Z,15.77
2022-10-21T19:34:50.576Z,16.30
2022-10-21T19:37:19.703Z,16.73
2022-10-21T19:39:48.735Z,18.10
2022-10-21T19:42:19.035Z,15.40
2022-10-21T19:44:48.111Z,16.50
2022-10-21T19:47:17.066Z,15.13
2022-10-21T19:49:46.140Z,14.10
2022-10-21T19:52:15.172Z,14.57
2022-10-21T19:54:44.302Z,14.40
2022-10-21T19:57:13.556Z,16.20
2022-10-21T19:59:44.240Z,15.97
2022-10-21T20:02:13.704Z,15.40
2022-10-21T20:04:42.694Z,14.97
2022-10-21T20:07:11.840Z,14.50
2022-10-21T20:09:43.819Z,13.40
2022-10-21T20:12:12.929Z,13.73
2022-10-21T20:14:43.606Z,12.97
2022-10-21T20:17:16.197Z,15.77
2022-10-21T20:19:49.220Z,15.30
2022-10-21T20:22:18.528Z,14.37
2022-10-21T20:24:47.796Z,16.10
2022-10-21T20:27:16.775Z,14.93
2022-10-21T20:29:47.313Z,14.80
2022-10-21T20:32:16.361Z,15.50
2022-10-21T20:34:47.097Z,15.97
2022-10-21T20:37:16.036Z,16.23
2022-10-21T20:39:45.142Z,14.63
2022-10-21T20:42:14.205Z,16.47
2022-10-21T20:44:43.233Z,18.37
2022-10-21T20:47:13.700Z,17.37
2022-10-21T20:49:42.699Z,16.33
2022-10-21T20:52:12.352Z,18.13
2022-10-21T20:54:41.360Z,17.50
2022-10-21T20:57:10.641Z,14.27
2022-10-21T20:59:39.679Z,15.33
2022-10-21T21:02:10.197Z,16.90
2022-10-21T21:04:40.687Z,18.83
2022-10-21T21:07:09.820Z,18.50
2022-10-21T21:12:29.376Z,17.13
2022-10-21T21:14:58.349Z,17.20
2022-10-21T21:17:27.627Z,16.93
2022-10-21T21:19:58.049Z,16.83
2022-10-21T21:22:27.167Z,15.70
2022-10-21T21:24:56.388Z,16.50
2022-10-21T21:27:25.850Z,16.70
2022-10-21T21:29:55.330Z,18.03
2022-10-21T21:32:25.051Z,16.17
2022-10-21T21:34:55.466Z,17.17
2022-10-21T21:37:26.971Z,15.40
2022-10-21T21:39:55.944Z,16.87
2022-10-21T21:42:25.028Z,16.93
2022-10-21T21:44:54.154Z,16.33
2022-10-21T21:47:23.216Z,16.00
2022-10-21T21:49:52.220Z,15.17
2022-10-21T21:52:21.614Z,15.40
2022-10-21T21:54:55.648Z,18.50
2022-10-21T21:57:28.437Z,16.77
2022-10-21T21:59:57.804Z,16.07
2022-10-21T22:02:26.852Z,15.77
2022-10-21T22:04:55.862Z,16.63
2022-10-21T22:07:24.779Z,15.30
2022-10-21T22:09:58.685Z,16.70
2022-10-21T22:12:27.809Z,17.70
2022-10-21T22:14:56.888Z,16.97
2022-10-21T22:17:25.899Z,17.33
2022-10-21T22:19:54.964Z,16.77
2022-10-21T22:22:24.035Z,16.93
2022-10-21T22:24:53.054Z,15.87
2022-10-21T22:27:23.408Z,15.70
2022-10-21T22:29:52.602Z,15.10
2022-10-21T22:32:21.706Z,16.67
2022-10-21T22:34:50.775Z,16.37
2022-10-21T22:37:20.053Z,17.00
2022-10-21T22:39:49.205Z,17.90
2022-10-21T22:42:18.277Z,17.17
2022-10-21T22:44:48.696Z,15.23
2022-10-21T22:47:18.453Z,15.90
2022-10-21T22:49:47.544Z,16.97
2022-10-21T22:52:16.649Z,16.23
2022-10-21T22:54:49.443Z,15.40
2022-10-21T22:57:18.941Z,15.10
2022-10-21T22:59:53.026Z,14.00
2022-10-21T23:02:22.416Z,15.80
2022-10-21T23:04:51.525Z,14.67
2022-10-21T23:07:20.614Z,16.10
2022-10-21T23:09:51.441Z,15.47
2022-10-21T23:12:20.462Z,13.70
2022-10-21T23:14:50.899Z,15.83
2022-10-21T23:17:20.290Z,14.50
2022-10-21T23:19:49.445Z,14.73
2022-10-21T23:22:18.759Z,15.50
2022-10-21T23:24:48.095Z,14.50
2022-10-21T23:27:17.091Z,14.90
2022-10-21T23:29:46.041Z,14.90
2022-10-21T23:32:16.613Z,13.90
2022-10-21T23:34:45.716Z,16.93
2022-10-21T23:37:14.849Z,14.40
2022-10-21T23:39:43.990Z,12.87
2022-10-21T23:42:12.996Z,12.60
2022-10-21T23:44:42.034Z,13.63
2022-10-21T23:47:11.063Z,14.20
2022-10-21T23:49:41.557Z,12.33
2022-10-21T23:52:10.585Z,11.50
2022-10-21T23:54:39.575Z,12.53
2022-10-21T23:57:08.677Z,15.03
2022-10-21T23:59:37.715Z,12.30
